Time;durP1;ratioP1;P1;durP2;ratioP2;P2;SDS_P1;SDS_P2;PMS_P1;PMS_P2;Temp;Humidity;BMP_temperature;BMP_pressure;BME280_temperature;BME280_humidity;BME280_pressure;Samples;Min_cycle;Max_cycle;Signal;HPM_P1;HPM_P2
2023/12/18 00:02:12;;;;;;;11.40;7.70;;;;;;;4.90;100.00;100375.94;109615;1251;59870;-77
2023/12/18 00:04:39;;;;;;;10.80;7.50;;;;;;;4.91;100.00;100379.27;109620;1250;66883;-77
2023/12/18 00:07:05;;;;;;;10.30;7.20;;;;;;;4.90;100.00;100382.63;109587;1251;61146;-78
2023/12/18 00:09:32;;;;;;;9.80;7.40;;;;;;;4.91;100.00;100382.59;109578;1251;65078;-76
2023/12/18 00:11:58;;;;;;;11.60;7.60;;;;;;;4.91;100.00;100381.39;109580;1251;59772;-77
2023/12/18 00:14:25;;;;;;;10.40;7.50;;;;;;;4.90;100.00;100381.75;109608;1251;59785;-78
2023/12/18 00:16:52;;;;;;;12.40;7.80;;;;;;;4.90;100.00;100376.45;109585;1251;66786;-77
2023/12/18 00:19:18;;;;;;;10.10;7.60;;;;;;;4.89;100.00;100378.24;109659;1250;61167;-77
2023/12/18 00:21:45;;;;;;;10.60;7.40;;;;;;;4.90;100.00;100373.30;109579;1251;65085;-78
2023/12/18 00:24:11;;;;;;;9.80;6.90;;;;;;;4.90;100.00;100367.48;109610;1251;59756;-77
2023/12/18 00:26:38;;;;;;;9.60;6.90;;;;;;;4.88;100.00;100368.95;109407;1251;59899;-78
2023/12/18 00:29:05;;;;;;;8.30;6.60;;;;;;;4.84;100.00;100369.20;109632;1251;66833;-77
2023/12/18 00:31:31;;;;;;;12.80;7.20;;;;;;;4.83;100.00;100365.36;109588;1250;59796;-77
2023/12/18 00:33:58;;;;;;;8.90;6.50;;;;;;;4.84;100.00;100364.80;109530;1251;65100;-77
2023/12/18 00:36:24;;;;;;;10.20;7.10;;;;;;;4.84;100.00;100369.54;109634;1251;60200;-77
2023/12/18 00:38:51;;;;;;;9.30;6.60;;;;;;;4.83;100.00;100366.22;109586;1251;59835;-77
2023/12/18 00:41:18;;;;;;;8.80;6.80;;;;;;;4.85;100.00;100365.66;109630;1251;66938;-77
2023/12/18 00:43:45;;;;;;;9.90;7.10;;;;;;;4.86;100.00;100364.40;109320;1251;60019;-78
2023/12/18 00:46:12;;;;;;;10.30;6.90;;;;;;;4.87;100.00;100364.20;109607;1251;64028;-77
2023/12/18 00:48:38;;;;;;;9.30;6.80;;;;;;;4.87;100.00;100365.81;109592;1251;59862;-77
2023/12/18 00:51:10;;;;;;;8.60;6.80;;;;;;;4.85;100.00;100366.20;109565;1251;59832;-76
2023/12/18 00:53:37;;;;;;;8.60;7.40;;;;;;;4.84;100.00;100362.50;109624;1250;68119;-76
2023/12/18 00:56:04;;;;;;;10.50;7.80;;;;;;;4.86;100.00;100363.36;109621;1251;61587;-77
2023/12/18 00:58:30;;;;;;;10.80;8.10;;;;;;;4.82;100.00;100361.83;109590;1251;63729;-77
2023/12/18 01:00:57;;;;;;;8.30;6.60;;;;;;;4.79;100.00;100364.20;109626;1251;59776;-77
2023/12/18 01:03:23;;;;;;;11.80;8.10;;;;;;;4.77;100.00;100365.13;109389;1251;59943;-78
2023/12/18 01:05:50;;;;;;;11.50;7.50;;;;;;;4.77;100.00;100361.61;109590;1251;65570;-78
2023/12/18 01:08:17;;;;;;;10.10;7.40;;;;;;;4.76;100.00;100351.06;109596;1250;60979;-77
2023/12/18 01:10:44;;;;;;;8.90;7.40;;;;;;;4.75;100.00;100346.86;109576;1251;64943;-78
2023/12/18 01:13:11;;;;;;;10.00;7.00;;;;;;;4.72;100.00;100342.51;109582;1251;59852;-77
2023/12/18 01:15:37;;;;;;;14.20;8.30;;;;;;;4.69;100.00;100334.32;109572;1251;59685;-77
2023/12/18 01:18:04;;;;;;;12.50;7.90;;;;;;;4.66;100.00;100331.56;108853;1251;1002233;-77
2023/12/18 01:20:30;;;;;;;10.50;7.30;;;;;;;4.62;100.00;100331.81;109616;1251;60074;-78
2023/12/18 01:22:57;;;;;;;10.60;7.10;;;;;;;4.59;100.00;100332.92;109608;1251;64064;-77
2023/12/18 01:25:24;;;;;;;10.30;7.40;;;;;;;4.57;100.00;100330.52;109575;1251;60004;-77
2023/12/18 01:27:50;;;;;;;10.40;7.20;;;;;;;4.55;100.00;100322.09;109577;1251;59914;-77
2023/12/18 01:30:17;;;;;;;10.90;7.70;;;;;;;4.52;100.00;100320.58;109634;1251;66784;-77
2023/12/18 01:32:43;;;;;;;10.40;6.90;;;;;;;4.47;100.00;100316.12;109618;1251;61192;-77
2023/12/18 01:35:10;;;;;;;9.30;7.20;;;;;;;4.42;100.00;100313.92;109271;1251;65054;-77
2023/12/18 01:37:36;;;;;;;8.70;6.40;;;;;;;4.37;100.00;100313.14;108868;1251;1002600;-77
2023/12/18 01:40:03;;;;;;;7.70;6.70;;;;;;;4.34;100.00;100314.27;109612;1251;59890;-77
2023/12/18 01:42:31;;;;;;;11.30;7.80;;;;;;;4.31;100.00;100313.45;109457;1251;66784;-78
2023/12/18 01:44:57;;;;;;;9.30;7.10;;;;;;;4.29;100.00;100316.32;109583;1251;60140;-77
2023/12/18 01:47:24;;;;;;;9.50;7.20;;;;;;;4.26;100.00;100311.09;109600;1251;63982;-77
2023/12/18 01:49:52;;;;;;;10.50;7.40;;;;;;;4.23;100.00;100301.48;109556;1251;59727;-78
2023/12/18 01:52:19;;;;;;;11.10;7.50;;;;;;;4.20;100.00;100296.24;109406;1251;59933;-78
2023/12/18 01:54:46;;;;;;;9.50;7.60;;;;;;;4.19;100.00;100293.27;109589;1251;66806;-77
2023/12/18 01:57:17;;;;;;;8.40;7.30;;;;;;;4.16;100.00;100292.62;109617;1251;61481;-77
2023/12/18 01:59:44;;;;;;;9.30;7.70;;;;;;;4.12;100.00;100287.79;109532;1251;73010;-77
2023/12/18 02:02:10;;;;;;;9.90;7.70;;;;;;;4.08;100.00;100282.94;109570;1251;60634;-77
2023/12/18 02:04:37;;;;;;;10.70;7.10;;;;;;;4.06;100.00;100287.56;109596;1251;59946;-78
2023/12/18 02:07:07;;;;;;;11.70;7.80;;;;;;;4.06;100.00;100288.80;109620;1250;67982;-77
2023/12/18 02:09:34;;;;;;;;;;;;;;;4.06;100.00;100285.98;109613;1251;61010;-77
2023/12/18 02:12:03;;;;;;;9.10;6.90;;;;;;;4.05;100.00;100289.34;109626;1251;62778;-77
2023/12/18 02:14:30;;;;;;;9.60;7.30;;;;;;;4.01;100.00;100290.45;109298;1251;59848;-77
2023/12/18 02:16:57;;;;;;;8.30;6.90;;;;;;;3.99;100.00;100289.44;109489;1251;59953;-77
2023/12/18 02:19:28;;;;;;;9.80;7.00;;;;;;;3.97;100.00;100284.20;109629;1251;67765;-76
2023/12/18 02:21:56;;;;;;;10.70;6.70;;;;;;;3.98;100.00;100281.02;108829;1251;1002921;-78
2023/12/18 02:24:23;;;;;;;11.70;7.00;;;;;;;4.02;100.00;100277.96;109567;1251;65355;-77
2023/12/18 02:26:50;;;;;;;9.60;6.30;;;;;;;4.05;100.00;100273.33;109584;1251;59747;-77
2023/12/18 02:29:16;;;;;;;8.10;6.20;;;;;;;4.08;100.00;100270.11;109626;1251;59710;-77
2023/12/18 02:31:43;;;;;;;6.60;5.50;;;;;;;4.15;100.00;100269.95;109618;1251;66867;-77
2023/12/18 02:34:10;;;;;;;8.00;5.80;;;;;;;4.22;100.00;100261.73;109627;1251;60162;-77
2023/12/18 02:36:36;;;;;;;7.70;5.60;;;;;;;4.29;100.00;100263.88;109612;1251;65135;-77
2023/12/18 02:39:03;;;;;;;6.90;5.50;;;;;;;4.36;100.00;100263.36;109582;1251;59714;-77
2023/12/18 02:41:29;;;;;;;7.50;5.70;;;;;;;4.42;100.00;100260.95;109432;1251;60240;-78
2023/12/18 02:43:57;;;;;;;7.40;5.50;;;;;;;4.46;100.00;100259.82;109596;1251;66832;-77
2023/12/18 02:46:23;;;;;;;6.70;5.10;;;;;;;4.49;100.00;100261.34;109618;1253;60957;-77
2023/12/18 02:48:50;;;;;;;7.50;5.30;;;;;;;4.52;100.00;100259.70;109536;1251;63907;-77
2023/12/18 02:51:17;;;;;;;7.80;4.90;;;;;;;4.54;100.00;100257.37;108783;1251;1002508;-77
2023/12/18 02:53:43;;;;;;;6.50;5.60;;;;;;;4.56;100.00;100253.43;109609;1251;59784;-78
2023/12/18 02:56:13;;;;;;;8.20;4.80;;;;;;;4.62;100.00;100249.09;109575;1251;66758;-77
2023/12/18 02:58:40;;;;;;;7.50;5.10;;;;;;;4.68;100.00;100244.39;109654;1250;60101;-77
2023/12/18 03:01:07;;;;;;;5.90;4.40;;;;;;;4.74;100.00;100239.85;109353;1251;64085;-77
2023/12/18 03:03:33;;;;;;;6.20;4.70;;;;;;;4.82;100.00;100238.58;109346;1256;59816;-78
2023/12/18 03:06:00;;;;;;;5.90;3.90;;;;;;;4.88;100.00;100235.45;109577;1251;59673;-77
2023/12/18 03:08:27;;;;;;;5.30;4.50;;;;;;;4.93;100.00;100238.15;109589;1251;67625;-77
2023/12/18 03:10:54;;;;;;;5.00;4.10;;;;;;;4.96;100.00;100235.24;109579;1251;61329;-78
2023/12/18 03:13:20;;;;;;;6.90;4.80;;;;;;;4.98;100.00;100233.28;109512;1251;65145;-78
2023/12/18 03:15:47;;;;;;;6.80;5.00;;;;;;;5.00;100.00;100229.71;109578;1251;59789;-77
2023/12/18 03:18:14;;;;;;;5.50;4.00;;;;;;;5.00;100.00;100229.34;109588;1251;59605;-77
2023/12/18 03:20:40;;;;;;;6.00;4.40;;;;;;;5.00;100.00;100231.98;109591;1251;67748;-77
2023/12/18 03:23:07;;;;;;;5.90;4.80;;;;;;;5.00;100.00;100233.92;109596;1251;61064;-78
2023/12/18 03:25:33;;;;;;;6.20;4.80;;;;;;;5.00;100.00;100232.54;109558;1251;73455;-77
2023/12/18 03:28:00;;;;;;;7.20;4.90;;;;;;;4.96;100.00;100235.27;109595;1251;59728;-77
2023/12/18 03:30:27;;;;;;;6.60;4.40;;;;;;;4.90;100.00;100232.41;109572;1251;59922;-77
2023/12/18 03:32:55;;;;;;;7.40;4.80;;;;;;;4.84;100.00;100231.67;109583;1251;67801;-78
2023/12/18 03:35:22;;;;;;;6.00;5.40;;;;;;;4.79;100.00;100232.32;109609;1251;59818;-77
2023/12/18 03:37:48;;;;;;;7.40;5.70;;;;;;;4.72;100.00;100236.01;109563;1251;65052;-77
2023/12/18 03:40:15;;;;;;;7.20;5.70;;;;;;;4.64;100.00;100235.49;109555;1251;60118;-77
2023/12/18 03:42:41;;;;;;;9.00;6.40;;;;;;;4.55;100.00;100236.20;109585;1250;59786;-77
2023/12/18 03:45:08;;;;;;;8.30;6.20;;;;;;;4.49;100.00;100234.58;109544;1250;66726;-77
2023/12/18 03:47:35;;;;;;;7.50;6.00;;;;;;;4.44;100.00;100236.45;109421;1251;61067;-76
2023/12/18 03:50:02;;;;;;;6.30;5.60;;;;;;;4.42;100.00;100236.69;109525;1251;62685;-76
2023/12/18 03:52:29;;;;;;;7.60;5.50;;;;;;;4.40;100.00;100236.36;109568;1251;59768;-78
2023/12/18 03:54:55;;;;;;;7.80;5.10;;;;;;;4.37;100.00;100229.58;109550;1251;60938;-78
2023/12/18 03:57:24;;;;;;;7.40;5.50;;;;;;;4.32;100.00;100227.93;109253;1250;249281;-77
2023/12/18 03:59:51;;;;;;;7.50;4.90;;;;;;;4.28;100.00;100224.50;109654;1250;60116;-77
2023/12/18 04:02:17;;;;;;;6.00;5.40;;;;;;;4.24;100.00;100221.77;109546;1251;64694;-77
2023/12/18 04:04:44;;;;;;;6.20;5.00;;;;;;;4.21;100.00;100218.50;109611;1251;59740;-77
2023/12/18 04:07:11;;;;;;;8.90;5.90;;;;;;;4.18;100.00;100222.41;109614;1251;59808;-78
2023/12/18 04:09:38;;;;;;;8.30;5.80;;;;;;;4.14;100.00;100223.54;109639;1251;66850;-77
2023/12/18 04:12:05;;;;;;;8.00;6.00;;;;;;;4.10;100.00;100228.56;109609;1251;61227;-76
2023/12/18 04:14:32;;;;;;;8.60;5.40;;;;;;;4.06;100.00;100232.00;109561;1251;64785;-77
2023/12/18 04:16:58;;;;;;;6.10;5.20;;;;;;;4.04;100.00;100230.10;109631;1251;59818;-77
2023/12/18 04:19:25;;;;;;;7.10;5.70;;;;;;;4.03;100.00;100229.23;109585;1251;59844;-77
2023/12/18 04:21:52;;;;;;;8.00;6.00;;;;;;;4.01;100.00;100230.52;109574;1251;67766;-77
2023/12/18 04:24:18;;;;;;;7.20;5.60;;;;;;;4.01;100.00;100227.88;109621;1251;60901;-77
2023/12/18 04:26:46;;;;;;;8.20;5.80;;;;;;;4.00;100.00;100225.24;109585;1251;63715;-77
2023/12/18 04:29:12;;;;;;;7.70;5.90;;;;;;;3.98;100.00;100228.46;109520;1251;59735;-77
2023/12/18 04:31:39;;;;;;;7.90;6.20;;;;;;;3.95;100.00;100235.90;109422;1251;59854;-77
2023/12/18 04:34:06;;;;;;;8.20;6.00;;;;;;;3.94;100.00;100239.97;109583;1251;67809;-77
2023/12/18 04:36:39;;;;;;;7.80;6.50;;;;;;;3.93;100.00;100239.80;109290;1251;61013;-77
2023/12/18 04:39:06;;;;;;;8.00;5.90;;;;;;;3.91;100.00;100234.73;109285;1251;65444;-77
2023/12/18 04:41:33;;;;;;;10.00;6.20;;;;;;;3.90;100.00;100235.30;109561;1251;59777;-78
2023/12/18 04:43:59;;;;;;;9.90;7.00;;;;;;;3.88;100.00;100240.45;109427;1251;59883;-77
2023/12/18 04:46:26;;;;;;;10.20;7.00;;;;;;;3.84;100.00;100235.77;109604;1251;67781;-77
2023/12/18 04:48:53;;;;;;;8.20;6.80;;;;;;;3.78;100.00;100234.30;109589;1251;61129;-78
2023/12/18 04:51:19;;;;;;;7.40;6.30;;;;;;;3.74;100.00;100234.57;109562;1251;65479;-78
2023/12/18 04:53:46;;;;;;;10.10;7.10;;;;;;;3.71;100.00;100234.79;109560;1255;59734;-78
2023/12/18 04:56:12;;;;;;;9.10;7.20;;;;;;;3.70;100.00;100235.67;109548;1251;60159;-78
2023/12/18 04:58:39;;;;;;;7.60;5.30;;;;;;;3.70;100.00;100235.33;109606;1251;67850;-78
2023/12/18 05:01:05;;;;;;;6.80;5.90;;;;;;;3.72;100.00;100239.17;109570;1251;61065;-78
2023/12/18 05:03:32;;;;;;;7.50;5.40;;;;;;;3.72;100.00;100243.04;109573;1251;65068;-77
2023/12/18 05:05:59;;;;;;;9.80;6.00;;;;;;;3.72;100.00;100247.41;109552;1251;59948;-77
2023/12/18 05:08:25;;;;;;;7.90;5.90;;;;;;;3.76;100.00;100243.65;109612;1251;59804;-78
2023/12/18 05:10:52;;;;;;;7.00;5.60;;;;;;;3.77;100.00;100245.58;109608;1251;67969;-77
2023/12/18 05:13:18;;;;;;;7.60;5.90;;;;;;;3.75;100.00;100246.13;109564;1251;60082;-78
2023/12/18 05:15:45;;;;;;;8.10;6.20;;;;;;;3.74;100.00;100250.02;109570;1251;64088;-78
2023/12/18 05:18:12;;;;;;;9.10;6.90;;;;;;;3.75;100.00;100255.44;108760;1251;1002326;-78
2023/12/18 05:20:39;;;;;;;11.50;7.30;;;;;;;3.75;100.00;100255.98;109599;1251;59789;-78
2023/12/18 05:23:05;;;;;;;11.50;7.90;;;;;;;3.73;100.00;100257.05;109563;1251;60332;-78
2023/12/18 05:25:32;;;;;;;11.60;8.20;;;;;;;3.74;100.00;100256.17;109606;1250;59846;-78
2023/12/18 05:27:58;;;;;;;11.10;9.00;;;;;;;3.74;100.00;100257.23;109246;1251;59776;-78
2023/12/18 05:30:25;;;;;;;13.10;10.80;;;;;;;3.73;100.00;100256.36;109585;1251;59841;-77
2023/12/18 05:32:52;;;;;;;15.30;10.90;;;;;;;3.72;100.00;100254.45;109584;1251;59840;-78
2023/12/18 05:35:18;;;;;;;15.40;12.00;;;;;;;3.73;100.00;100257.94;109570;1251;67795;-78
2023/12/18 05:37:45;;;;;;;14.60;10.80;;;;;;;3.75;100.00;100259.13;109574;1251;61008;-76
2023/12/18 05:40:11;;;;;;;16.00;11.80;;;;;;;3.77;100.00;100260.34;109575;1251;65021;-77
2023/12/18 05:42:38;;;;;;;19.10;13.00;;;;;;;3.78;100.00;100264.54;109516;1251;59775;-77
2023/12/18 05:45:05;;;;;;;14.00;8.30;;;;;;;3.79;100.00;100262.23;109354;1251;59886;-78
2023/12/18 05:47:32;;;;;;;9.90;7.20;;;;;;;3.81;100.00;100267.83;109240;1251;66722;-77
2023/12/18 05:49:59;;;;;;;8.90;6.50;;;;;;;3.80;100.00;100266.78;109545;1251;61188;-78
2023/12/18 05:52:25;;;;;;;11.50;6.80;;;;;;;3.82;100.00;100272.02;109552;1251;64137;-77
2023/12/18 05:54:52;;;;;;;7.80;6.30;;;;;;;3.85;100.00;100275.66;109511;1251;60039;-76
2023/12/18 05:57:19;;;;;;;9.00;6.40;;;;;;;3.91;100.00;100279.39;109585;1251;59944;-77
2023/12/18 05:59:45;;;;;;;9.80;7.60;;;;;;;3.98;100.00;100285.60;109611;1251;68239;-78
2023/12/18 06:02:12;;;;;;;11.20;7.50;;;;;;;4.03;100.00;100290.06;109575;1250;60755;-78
2023/12/18 06:04:41;;;;;;;8.60;6.80;;;;;;;4.08;100.00;100289.46;109544;1251;63961;-77
2023/12/18 06:07:09;;;;;;;9.40;6.70;;;;;;;4.11;100.00;100289.23;109550;1251;59820;-76
2023/12/18 06:09:35;;;;;;;8.70;6.50;;;;;;;4.15;100.00;100287.55;109512;1251;60050;-78
2023/12/18 06:12:02;;;;;;;9.40;6.80;;;;;;;4.23;100.00;100288.98;109314;1251;68167;-78
2023/12/18 06:14:29;;;;;;;8.50;5.70;;;;;;;4.29;100.00;100295.37;109551;1250;60043;-77
2023/12/18 06:16:55;;;;;;;7.40;5.60;;;;;;;4.32;100.00;100294.09;109287;1251;64598;-79
2023/12/18 06:19:22;;;;;;;9.10;5.40;;;;;;;4.33;100.00;100299.35;109525;1251;59825;-77
2023/12/18 06:21:49;;;;;;;7.80;5.20;;;;;;;4.36;100.00;100304.02;109541;1254;59734;-78
2023/12/18 06:24:15;;;;;;;6.90;4.90;;;;;;;4.41;100.00;100301.27;109586;1251;67880;-76
2023/12/18 06:26:42;;;;;;;7.60;5.20;;;;;;;4.42;100.00;100303.88;109576;1251;60375;-77
2023/12/18 06:29:08;;;;;;;7.60;5.40;;;;;;;4.44;100.00;100304.04;109515;1251;64066;-78
2023/12/18 06:31:35;;;;;;;7.70;5.60;;;;;;;4.48;100.00;100305.19;109526;1251;59804;-78
2023/12/18 06:34:01;;;;;;;8.90;6.10;;;;;;;4.52;100.00;100309.49;109530;1251;60608;-78
2023/12/18 06:36:28;;;;;;;8.40;5.90;;;;;;;4.58;100.00;100315.00;109551;1251;68056;-76
2023/12/18 06:38:55;;;;;;;8.60;6.20;;;;;;;4.60;100.00;100311.77;109589;1251;60993;-78
2023/12/18 06:41:22;;;;;;;9.10;6.00;;;;;;;4.61;100.00;100308.41;109508;1251;64254;-78
2023/12/18 06:43:48;;;;;;;8.30;5.60;;;;;;;4.65;100.00;100310.63;109518;1251;60005;-78
2023/12/18 06:46:15;;;;;;;8.40;5.80;;;;;;;4.68;100.00;100308.45;109594;1251;59866;-78
2023/12/18 06:48:42;;;;;;;6.60;5.40;;;;;;;4.72;100.00;100302.02;109579;1251;67848;-77
2023/12/18 06:51:09;;;;;;;6.50;5.60;;;;;;;4.75;100.00;100298.10;109550;1251;61114;-78
2023/12/18 06:53:36;;;;;;;8.70;6.00;;;;;;;4.79;100.00;100299.05;109526;1251;64032;-77
2023/12/18 06:56:03;;;;;;;5.90;4.40;;;;;;;4.82;100.00;100296.52;109570;1251;59751;-77
2023/12/18 06:58:30;;;;;;;6.60;5.40;;;;;;;4.88;100.00;100296.73;109567;1251;59833;-76
2023/12/18 07:00:57;;;;;;;7.80;6.30;;;;;;;4.91;100.00;100293.48;109568;1251;67805;-77
2023/12/18 07:03:24;;;;;;;8.00;5.10;;;;;;;4.96;100.00;100284.92;109550;1250;59812;-78
2023/12/18 07:05:51;;;;;;;8.10;5.90;;;;;;;5.01;100.00;100275.46;109586;1251;65061;-77
2023/12/18 07:08:17;;;;;;;8.90;5.40;;;;;;;5.05;100.00;100271.86;109553;1251;59818;-78
2023/12/18 07:10:45;;;;;;;9.30;6.40;;;;;;;5.08;100.00;100276.02;109394;1251;59949;-78
2023/12/18 07:13:12;;;;;;;9.80;5.70;;;;;;;5.12;100.00;100281.59;109547;1251;67988;-78
2023/12/18 07:15:38;;;;;;;9.40;6.90;;;;;;;5.14;100.00;100288.02;109564;1251;60133;-77
2023/12/18 07:18:07;;;;;;;9.50;6.50;;;;;;;5.17;100.00;100290.06;109563;1251;64057;-76
2023/12/18 07:20:34;;;;;;;7.20;6.40;;;;;;;5.20;100.00;100293.16;109567;1251;60130;-75
2023/12/18 07:23:00;;;;;;;8.90;6.10;;;;;;;5.25;100.00;100293.05;109571;1251;59791;-76
2023/12/18 07:25:27;;;;;;;9.30;6.60;;;;;;;5.29;100.00;100281.70;109518;1252;67964;-74
2023/12/18 07:27:53;;;;;;;8.20;5.60;;;;;;;5.33;100.00;100279.98;109602;1251;60142;-75
2023/12/18 07:30:20;;;;;;;7.20;5.50;;;;;;;5.38;100.00;100283.92;109556;1251;64149;-76
2023/12/18 07:32:47;;;;;;;7.80;5.00;;;;;;;5.43;100.00;100287.66;109557;1251;59801;-76
2023/12/18 07:35:13;;;;;;;9.40;5.40;;;;;;;5.48;100.00;100281.38;109574;1251;59848;-75
2023/12/18 07:37:40;;;;;;;9.10;5.40;;;;;;;5.53;100.00;100275.44;109553;1253;66959;-75
2023/12/18 07:40:07;;;;;;;11.00;5.80;;;;;;;5.58;100.00;100270.54;109617;1251;60135;-75
2023/12/18 07:42:34;;;;;;;8.00;5.30;;;;;;;5.65;100.00;100263.48;109571;1251;64697;-75
2023/12/18 07:45:00;;;;;;;6.60;5.00;;;;;;;5.71;100.00;100262.80;109539;1251;59843;-75
2023/12/18 07:47:27;;;;;;;5.70;4.50;;;;;;;5.77;100.00;100261.40;109522;1251;59961;-75
2023/12/18 07:49:53;;;;;;;6.50;4.70;;;;;;;5.84;100.00;100261.39;109326;1251;65533;-74
2023/12/18 07:52:20;;;;;;;4.70;4.20;;;;;;;5.91;100.00;100258.04;109530;1251;61065;-74
2023/12/18 07:54:47;;;;;;;6.50;4.30;;;;;;;5.99;100.00;100257.66;109579;1251;64124;-74
2023/12/18 07:57:13;;;;;;;7.60;5.00;;;;;;;6.06;100.00;100258.34;109542;1251;59775;-74
2023/12/18 07:59:40;;;;;;;7.40;4.40;;;;;;;6.13;100.00;100257.25;109572;1251;59753;-74
2023/12/18 08:02:07;;;;;;;9.10;4.80;;;;;;;6.23;100.00;100258.05;109578;1251;67832;-76
2023/12/18 08:04:35;;;;;;;5.80;4.80;;;;;;;6.35;100.00;100266.17;109580;1251;60012;-74
2023/12/18 08:07:02;;;;;;;6.70;5.00;;;;;;;6.44;100.00;100268.91;109562;1251;64194;-73
2023/12/18 08:09:29;;;;;;;7.00;4.60;;;;;;;6.50;100.00;100273.31;109511;1251;59998;-76
2023/12/18 08:11:56;;;;;;;5.80;3.90;;;;;;;6.56;100.00;100274.02;109562;1251;60203;-76
2023/12/18 08:14:23;;;;;;;6.80;4.40;;;;;;;6.64;100.00;100267.96;109542;1251;66706;-75
2023/12/18 08:16:49;;;;;;;6.20;4.00;;;;;;;6.72;100.00;100265.43;109584;1251;61022;-76
2023/12/18 08:19:17;;;;;;;5.50;4.10;;;;;;;6.80;100.00;100256.85;109543;1251;65191;-75
2023/12/18 08:21:44;;;;;;;7.30;4.20;;;;;;;6.90;100.00;100254.43;109522;1251;59828;-76
2023/12/18 08:24:10;;;;;;;6.80;4.40;;;;;;;6.98;100.00;100252.39;109566;1251;59661;-75
2023/12/18 08:26:37;;;;;;;6.70;4.30;;;;;;;7.06;100.00;100255.88;109567;1253;66750;-84
2023/12/18 08:29:07;;;;;;;5.40;4.40;;;;;;;7.12;100.00;100262.37;109564;1251;59809;-85
2023/12/18 08:31:34;;;;;;;8.10;4.50;;;;;;;7.18;100.00;100260.77;109410;1250;65024;-77
2023/12/18 08:34:01;;;;;;;5.30;3.80;;;;;;;7.23;100.00;100259.19;109592;1251;59758;-78
2023/12/18 08:36:29;;;;;;;12.00;7.10;;;;;;;7.31;100.00;100260.89;109534;1251;59975;-77
2023/12/18 08:38:56;;;;;;;5.80;4.70;;;;;;;7.38;100.00;100259.93;109518;1251;66662;-77
2023/12/18 08:41:22;;;;;;;7.50;4.70;;;;;;;7.45;100.00;100255.45;109588;1251;61019;-77
2023/12/18 08:43:49;;;;;;;7.80;5.30;;;;;;;7.52;100.00;100251.31;109501;1251;65022;-78
2023/12/18 08:46:15;;;;;;;5.70;4.50;;;;;;;7.58;100.00;100248.30;109522;1251;59856;-78
2023/12/18 08:48:42;;;;;;;7.00;4.80;;;;;;;7.64;100.00;100243.98;109545;1251;59927;-77
2023/12/18 08:51:09;;;;;;;8.00;5.20;;;;;;;7.72;100.00;100248.36;109412;1251;65247;-78
2023/12/18 08:53:35;;;;;;;5.50;4.40;;;;;;;7.78;100.00;100249.00;109553;1251;59823;-78
2023/12/18 08:56:02;;;;;;;6.60;4.50;;;;;;;7.84;100.00;100250.37;109334;1251;64845;-78
2023/12/18 08:58:28;;;;;;;5.80;4.30;;;;;;;7.90;100.00;100248.75;109545;1251;59983;-78
2023/12/18 09:00:57;;;;;;;6.40;4.20;;;;;;;7.95;100.00;100248.73;109370;1250;59861;-78
2023/12/18 09:03:23;;;;;;;6.70;4.80;;;;;;;8.00;100.00;100241.14;109559;1251;73906;-78
2023/12/18 09:05:50;;;;;;;6.30;4.30;;;;;;;8.05;100.00;100232.66;109350;1251;60273;-77
2023/12/18 09:08:17;;;;;;;6.10;4.50;;;;;;;8.09;100.00;100227.16;109544;1251;63811;-78
2023/12/18 09:10:44;;;;;;;6.50;4.80;;;;;;;8.13;100.00;100226.86;109512;1251;59799;-77
2023/12/18 09:13:10;;;;;;;6.40;4.20;;;;;;;8.17;100.00;100225.81;109610;1251;59966;-79
2023/12/18 09:15:40;;;;;;;3.90;3.50;;;;;;;8.22;100.00;100221.23;109562;1251;66765;-79
2023/12/18 09:18:07;;;;;;;6.30;4.00;;;;;;;8.25;100.00;100220.19;109579;1251;61106;-77
2023/12/18 09:20:33;;;;;;;6.90;4.40;;;;;;;8.29;100.00;100217.23;109557;1251;64816;-78
2023/12/18 09:23:00;;;;;;;4.90;3.60;;;;;;;8.34;100.00;100211.38;109545;1251;59818;-78
2023/12/18 09:25:27;;;;;;;5.70;3.90;;;;;;;8.38;100.00;100204.87;109226;1252;59880;-77
2023/12/18 09:27:53;;;;;;;6.50;4.50;;;;;;;8.43;100.00;100204.35;109549;1251;66814;-77
2023/12/18 09:30:20;;;;;;;5.40;4.00;;;;;;;8.46;100.00;100202.83;109578;1251;60894;-78
2023/12/18 09:32:47;;;;;;;6.10;4.60;;;;;;;8.48;100.00;100203.96;109543;1251;63517;-78
2023/12/18 09:35:13;;;;;;;5.50;4.20;;;;;;;8.51;100.00;100199.24;109513;1255;60064;-79
2023/12/18 09:37:40;;;;;;;6.50;4.30;;;;;;;8.55;100.00;100201.75;109600;1251;60628;-78
2023/12/18 09:40:08;;;;;;;4.70;4.00;;;;;;;8.58;100.00;100200.91;109579;1251;59821;-77
2023/12/18 09:42:34;;;;;;;6.30;4.60;;;;;;;8.62;100.00;100202.35;109549;1251;61149;-78
2023/12/18 09:45:02;;;;;;;6.40;4.50;;;;;;;8.66;100.00;100205.41;109556;1251;63993;-78
2023/12/18 09:47:29;;;;;;;5.40;4.30;;;;;;;8.69;100.00;100202.77;109504;1251;60102;-78
2023/12/18 09:49:58;;;;;;;6.10;4.60;;;;;;;8.72;100.00;100201.94;109545;1251;59653;-78
2023/12/18 09:52:30;;;;;;;5.50;4.20;;;;;;;8.75;100.00;100200.73;109556;1251;67517;-79
2023/12/18 09:54:59;;;;;;;6.90;5.30;;;;;;;8.80;100.00;100190.14;109566;1251;60826;-79
2023/12/18 09:57:26;;;;;;;5.90;4.40;;;;;;;8.84;100.00;100188.20;109550;1251;65392;-78
2023/12/18 09:59:53;;;;;;;5.90;4.50;;;;;;;8.87;100.00;100185.76;109538;1251;59791;-78
2023/12/18 10:02:21;;;;;;;5.30;4.40;;;;;;;8.91;100.00;100183.66;109561;1251;59790;-78
2023/12/18 10:04:47;;;;;;;7.00;4.40;;;;;;;8.96;100.00;100180.95;109556;1251;67668;-79
2023/12/18 10:07:14;;;;;;;6.70;4.70;;;;;;;9.01;100.00;100182.88;109589;1251;60997;-78
2023/12/18 10:09:40;;;;;;;4.80;4.10;;;;;;;9.07;100.00;100178.39;109528;1251;65042;-78
2023/12/18 10:12:08;;;;;;;6.60;4.70;;;;;;;9.12;100.00;100176.05;109504;1251;59791;-79
2023/12/18 10:14:35;;;;;;;6.10;4.50;;;;;;;9.17;100.00;100174.61;109550;1251;59751;-78
2023/12/18 10:17:01;;;;;;;6.60;5.10;;;;;;;9.22;100.00;100169.40;109537;1251;67757;-79
2023/12/18 10:19:28;;;;;;;6.50;4.70;;;;;;;9.28;100.00;100166.69;109244;1251;60791;-79
2023/12/18 10:21:54;;;;;;;7.30;5.10;;;;;;;9.34;100.00;100163.24;109539;1250;65029;-79
2023/12/18 10:24:21;;;;;;;5.00;4.30;;;;;;;9.38;100.00;100161.42;109505;1251;59850;-79
2023/12/18 10:26:48;;;;;;;7.00;4.50;;;;;;;9.43;100.00;100158.73;109592;1251;59780;-78
2023/12/18 10:29:14;;;;;;;6.00;5.30;;;;;;;9.50;100.00;100150.14;109529;1255;66755;-78
2023/12/18 10:31:41;;;;;;;6.00;4.40;;;;;;;9.55;100.00;100148.83;109546;1251;60197;-78
2023/12/18 10:34:09;;;;;;;6.00;4.40;;;;;;;9.60;100.00;100151.61;109538;1251;64686;-79
2023/12/18 10:36:39;;;;;;;5.90;4.10;;;;;;;9.65;100.00;100146.77;109518;1251;59757;-78
2023/12/18 10:39:09;;;;;;;4.30;3.90;;;;;;;9.73;100.00;100146.09;109560;1251;59666;-78
2023/12/18 10:41:42;;;;;;;6.40;3.90;;;;;;;9.77;100.00;100139.85;109327;1251;67804;-79
2023/12/18 10:44:11;;;;;;;8.00;4.40;;;;;;;9.81;100.00;100128.85;109564;1251;60827;-78
2023/12/18 10:46:39;;;;;;;5.30;4.10;;;;;;;9.88;100.00;100128.52;109574;1251;64036;-78
2023/12/18 10:49:07;;;;;;;6.40;4.50;;;;;;;9.95;100.00;100130.19;109527;1251;60017;-79
2023/12/18 10:51:36;;;;;;;6.10;4.00;;;;;;;9.98;100.00;100129.48;109530;1251;59787;-78
2023/12/18 10:54:03;;;;;;;5.70;4.20;;;;;;;10.01;100.00;100129.71;109577;1251;66796;-79
2023/12/18 10:56:32;;;;;;;6.10;3.90;;;;;;;10.06;100.00;100126.81;109601;1251;60794;-78
2023/12/18 10:59:00;;;;;;;5.10;4.20;;;;;;;10.12;100.00;100119.41;109609;1251;65245;-78
2023/12/18 11:01:27;;;;;;;5.40;4.30;;;;;;;10.17;100.00;100113.85;109509;1251;59875;-79
2023/12/18 11:03:54;;;;;;;7.50;4.00;;;;;;;10.22;100.00;100109.34;109403;1251;61272;-78
2023/12/18 11:06:21;;;;;;;9.00;4.60;;;;;;;10.27;100.00;100102.93;109553;1251;66740;-77
2023/12/18 11:08:49;;;;;;;10.30;4.60;;;;;;;10.31;100.00;100105.03;109564;1251;59804;-78
2023/12/18 11:11:17;;;;;;;5.00;4.30;;;;;;;10.37;100.00;100106.91;109599;1251;64840;-78
2023/12/18 11:14:10;;;;;;;6.10;4.40;;;;;;;10.41;100.00;100101.75;109564;1251;59925;-80